createdAt,value
2018-05-18T00:02:25.132Z,101407.30
2018-05-18T00:04:53.489Z,101399.55
2018-05-18T00:07:21.825Z,101397.80
2018-05-18T00:09:50.172Z,101395.56
2018-05-18T00:12:18.509Z,101397.73
2018-05-18T00:14:46.873Z,101396.78
2018-05-18T00:17:15.210Z,101398.91
2018-05-18T00:19:43.561Z,101396.73
2018-05-18T00:22:11.892Z,101392.72
2018-05-18T00:24:40.244Z,101392.50
2018-05-18T00:27:08.572Z,101392.16
2018-05-18T00:29:36.927Z,101385.22
2018-05-18T00:32:05.258Z,101386.80
2018-05-18T00:34:33.603Z,101382.67
2018-05-18T00:37:01.941Z,101385.19
2018-05-18T00:39:30.302Z,101387.66
2018-05-18T00:41:58.637Z,101386.80
2018-05-18T00:44:26.993Z,101390.56
2018-05-18T00:46:55.333Z,101384.14
2018-05-18T00:49:23.684Z,101384.48
2018-05-18T00:51:52.008Z,101382.31
2018-05-18T00:54:20.364Z,101384.10
2018-05-18T00:56:48.701Z,101383.12
2018-05-18T00:59:17.048Z,101381.86
2018-05-18T01:01:45.391Z,101386.11
2018-05-18T01:04:13.748Z,101384.86
2018-05-18T01:06:42.076Z,101382.07
2018-05-18T01:09:10.439Z,101387.23
2018-05-18T01:11:38.764Z,101388.59
2018-05-18T01:14:07.119Z,101391.98
2018-05-18T01:16:35.449Z,101389.90
2018-05-18T01:19:03.804Z,101391.96
2018-05-18T01:21:32.140Z,101382.98
2018-05-18T01:24:00.497Z,101386.98
2018-05-18T01:26:28.832Z,101385.77
2018-05-18T01:28:57.188Z,101386.56
2018-05-18T01:31:25.528Z,101383.00
2018-05-18T01:33:53.880Z,101387.42
2018-05-18T01:36:22.217Z,101382.25
2018-05-18T01:38:50.563Z,101386.27
2018-05-18T01:41:18.895Z,101384.44
2018-05-18T01:43:47.265Z,101384.51
2018-05-18T01:46:15.592Z,101375.13
2018-05-18T01:48:43.924Z,101374.36
2018-05-18T01:51:12.281Z,101376.55
2018-05-18T01:53:40.620Z,101374.92
2018-05-18T01:56:08.968Z,101371.36
2018-05-18T01:58:37.301Z,101381.44
2018-05-18T02:01:05.656Z,101384.34
2018-05-18T02:03:33.989Z,101385.81
2018-05-18T02:06:02.690Z,101387.16
2018-05-18T02:08:31.004Z,101395.75
2018-05-18T02:10:59.349Z,101391.77
2018-05-18T02:13:27.680Z,101395.20
2018-05-18T02:15:56.032Z,101397.73
2018-05-18T02:18:24.364Z,101398.09
2018-05-18T02:20:52.716Z,101404.36
2018-05-18T02:23:21.049Z,101405.17
2018-05-18T02:25:49.404Z,101399.10
2018-05-18T02:28:17.736Z,101396.09
2018-05-18T02:30:46.096Z,101393.80
2018-05-18T02:33:14.435Z,101394.88
2018-05-18T02:35:42.793Z,101399.48
2018-05-18T02:38:11.124Z,101399.15
2018-05-18T02:40:39.476Z,101399.99
2018-05-18T02:43:07.815Z,101396.92
2018-05-18T02:45:36.157Z,101399.87
2018-05-18T02:48:04.495Z,101403.03
2018-05-18T02:50:32.848Z,101398.78
2018-05-18T02:53:01.180Z,101400.91
2018-05-18T02:55:29.530Z,101400.50
2018-05-18T02:57:57.861Z,101400.72
2018-05-18T03:00:26.211Z,101401.70
2018-05-18T03:02:54.594Z,101393.78
2018-05-18T03:05:22.937Z,101401.99
2018-05-18T03:07:51.260Z,101398.52
2018-05-18T03:10:19.617Z,101404.77
2018-05-18T03:12:47.961Z,101411.56
2018-05-18T03:15:16.313Z,101411.77
2018-05-18T03:17:44.650Z,101411.92
2018-05-18T03:20:13.001Z,101415.73
2018-05-18T03:22:41.341Z,101411.30
2018-05-18T03:25:09.694Z,101413.41
2018-05-18T03:27:38.029Z,101417.65
2018-05-18T03:30:06.380Z,101415.36
2018-05-18T03:32:34.714Z,101413.82
2018-05-18T03:35:03.068Z,101411.02
2018-05-18T03:37:31.400Z,101407.18
2018-05-18T03:39:59.753Z,101405.78
2018-05-18T03:42:28.087Z,101416.94
2018-05-18T03:44:56.457Z,101412.29
2018-05-18T03:47:24.794Z,101412.25
2018-05-18T03:49:53.124Z,101406.43
2018-05-18T03:52:21.485Z,101409.86
2018-05-18T03:54:49.813Z,101419.43
2018-05-18T03:57:18.163Z,101416.85
2018-05-18T03:59:46.492Z,101412.87
2018-05-18T04:02:26.751Z,101418.18
2018-05-18T04:05:06.881Z,101417.75
2018-05-18T04:10:37.652Z,101419.27
2018-05-18T04:13:05.984Z,101422.16
2018-05-18T04:15:34.336Z,101420.05
2018-05-18T04:18:02.671Z,101419.47
2018-05-18T04:20:31.024Z,101423.98
2018-05-18T04:22:59.360Z,101431.61
2018-05-18T04:25:27.720Z,101434.34
2018-05-18T04:27:56.048Z,101437.08
2018-05-18T04:30:24.469Z,101428.30
2018-05-18T04:32:52.736Z,101429.84
2018-05-18T04:35:21.092Z,101437.66
2018-05-18T04:37:49.421Z,101435.91
2018-05-18T04:40:17.743Z,101433.75
2018-05-18T04:42:46.101Z,101430.84
2018-05-18T04:45:14.434Z,101433.24
2018-05-18T04:47:42.777Z,101437.53
2018-05-18T04:50:11.108Z,101437.80
2018-05-18T04:52:39.458Z,101438.22
2018-05-18T04:55:07.792Z,101441.50
2018-05-18T04:57:36.147Z,101436.27
2018-05-18T05:00:04.472Z,101441.66
2018-05-18T05:02:32.816Z,101442.92
2018-05-18T05:05:01.144Z,101449.06
2018-05-18T05:07:29.500Z,101447.89
2018-05-18T05:09:57.837Z,101445.25
2018-05-18T05:12:26.197Z,101447.17
2018-05-18T05:14:54.524Z,101446.45
2018-05-18T05:17:22.877Z,101452.25
2018-05-18T05:19:51.205Z,101454.83
2018-05-18T05:22:19.560Z,101464.19
2018-05-18T05:24:47.888Z,101464.86
2018-05-18T05:27:16.245Z,101467.69
2018-05-18T05:29:45.435Z,101471.11
2018-05-18T05:32:13.789Z,101459.53
2018-05-18T05:34:42.113Z,101468.24
2018-05-18T05:37:10.464Z,101472.94
2018-05-18T05:39:38.793Z,101467.97
2018-05-18T05:42:07.149Z,101475.14
2018-05-18T05:44:35.481Z,101476.55
2018-05-18T05:47:03.835Z,101473.13
2018-05-18T05:49:32.166Z,101472.75
2018-05-18T05:52:00.516Z,101478.29
2018-05-18T05:54:28.844Z,101486.45
2018-05-18T05:56:57.193Z,101480.59
2018-05-18T05:59:25.558Z,101488.45
2018-05-18T06:01:53.868Z,101484.98
2018-05-18T06:04:23.298Z,101492.59
2018-05-18T06:06:51.647Z,101498.36
2018-05-18T06:09:19.992Z,101493.51
2018-05-18T06:11:48.342Z,101494.71
2018-05-18T06:14:16.668Z,101500.41
2018-05-18T06:16:45.025Z,101500.03
2018-05-18T06:19:13.500Z,101499.85
2018-05-18T06:21:41.836Z,101498.22
2018-05-18T06:24:10.168Z,101498.39
2018-05-18T06:26:38.520Z,101504.06
2018-05-18T06:29:06.848Z,101490.94
2018-05-18T06:31:35.200Z,101510.59
2018-05-18T06:34:03.533Z,101504.82
2018-05-18T06:36:31.889Z,101498.57
2018-05-18T06:39:00.235Z,101500.48
2018-05-18T06:41:28.573Z,101502.96
2018-05-18T06:43:56.916Z,101510.22
2018-05-18T06:46:25.249Z,101513.33
2018-05-18T06:48:54.140Z,101507.91
2018-05-18T06:51:22.476Z,101512.74
2018-05-18T06:53:50.824Z,101504.30
2018-05-18T06:56:19.156Z,101517.87
2018-05-18T06:58:47.555Z,101517.30
2018-05-18T07:01:15.912Z,101518.22
2018-05-18T07:03:44.268Z,101518.66
2018-05-18T07:06:12.704Z,101521.85
2018-05-18T07:08:41.249Z,101514.26
2018-05-18T07:11:09.656Z,101514.69
2018-05-18T07:13:38.299Z,101511.63
2018-05-18T07:16:06.656Z,101517.30
2018-05-18T07:18:35.013Z,101513.80
2018-05-18T07:21:03.340Z,101510.68
2018-05-18T07:23:31.759Z,101508.66
2018-05-18T07:26:00.011Z,101512.52
2018-05-18T07:28:28.425Z,101516.25
2018-05-18T07:30:56.752Z,101513.02
2018-05-18T07:33:25.104Z,101510.05
2018-05-18T07:35:53.434Z,101510.11
2018-05-18T07:38:21.780Z,101507.30
2018-05-18T07:40:50.116Z,101513.61
2018-05-18T07:43:18.467Z,101508.52
2018-05-18T07:45:46.800Z,101511.48
2018-05-18T07:48:15.156Z,101510.77
2018-05-18T07:50:43.484Z,101510.86
2018-05-18T07:53:11.835Z,101517.30
2018-05-18T07:55:40.177Z,101511.03
2018-05-18T07:58:08.529Z,101508.20
2018-05-18T08:00:36.852Z,101513.74
2018-05-18T08:03:05.201Z,101513.38
2018-05-18T08:05:33.540Z,101517.20
2018-05-18T08:08:02.859Z,101516.13
2018-05-18T08:10:31.193Z,101509.89
2018-05-18T08:12:59.544Z,101512.80
2018-05-18T08:15:27.871Z,101513.86
2018-05-18T08:17:56.224Z,101514.14
2018-05-18T08:20:24.587Z,101515.14
2018-05-18T08:22:52.905Z,101516.14
2018-05-18T08:25:21.233Z,101518.56
2018-05-18T08:27:49.667Z,101518.79
2018-05-18T08:30:17.996Z,101517.48
2018-05-18T08:32:46.344Z,101525.45
2018-05-18T08:35:14.680Z,101520.98
2018-05-18T08:37:43.040Z,101521.80
2018-05-18T08:40:11.367Z,101533.43
2018-05-18T08:42:39.697Z,101535.20
2018-05-18T08:45:08.044Z,101525.52
2018-05-18T08:47:37.336Z,101530.55
2018-05-18T08:50:05.714Z,101529.56
2018-05-18T08:52:33.976Z,101528.83
2018-05-18T08:55:02.336Z,101533.14
2018-05-18T08:57:30.660Z,101534.17
2018-05-18T08:59:59.012Z,101532.78
2018-05-18T09:02:27.341Z,101527.95
2018-05-18T09:04:55.694Z,101532.52
2018-05-18T09:07:24.096Z,101529.66
2018-05-18T09:09:52.449Z,101537.90
2018-05-18T09:12:20.773Z,101535.89
2018-05-18T09:14:49.137Z,101539.38
2018-05-18T09:17:17.464Z,101540.65
2018-05-18T09:19:45.812Z,101542.14
2018-05-18T09:22:14.140Z,101542.72
2018-05-18T09:24:42.492Z,101536.30
2018-05-18T09:27:11.849Z,101540.12
2018-05-18T09:29:40.200Z,101541.11
2018-05-18T09:32:08.538Z,101539.89
2018-05-18T09:34:36.897Z,101540.95
2018-05-18T09:37:05.226Z,101539.33
2018-05-18T09:39:33.579Z,101539.17
2018-05-18T09:42:01.917Z,101531.87
2018-05-18T09:44:30.273Z,101526.16
2018-05-18T09:46:58.644Z,101537.30
2018-05-18T09:49:27.001Z,101533.66
2018-05-18T09:51:55.337Z,101536.67
2018-05-18T09:54:23.871Z,101536.70
2018-05-18T09:56:52.101Z,101535.34
2018-05-18T09:59:20.449Z,101538.97
2018-05-18T10:01:48.781Z,101539.22
2018-05-18T10:04:17.143Z,101541.97
2018-05-18T10:06:46.376Z,101540.17
2018-05-18T10:09:14.727Z,101543.20
2018-05-18T10:11:43.062Z,101542.34
2018-05-18T10:14:11.408Z,101546.19
2018-05-18T10:16:39.746Z,101542.97
2018-05-18T10:19:08.100Z,101540.75
2018-05-18T10:21:36.432Z,101542.82
2018-05-18T10:24:04.781Z,101545.56
2018-05-18T10:26:33.937Z,101543.43
2018-05-18T10:29:02.293Z,101538.45
2018-05-18T10:31:30.612Z,101536.70
2018-05-18T10:33:58.968Z,101538.84
2018-05-18T10:36:27.293Z,101538.59
2018-05-18T10:38:55.640Z,101545.09
2018-05-18T10:41:23.972Z,101545.78
2018-05-18T10:43:52.336Z,101532.69
2018-05-18T10:46:21.540Z,101533.77
2018-05-18T10:48:49.881Z,101536.06
2018-05-18T10:51:18.223Z,101539.08
2018-05-18T10:53:46.561Z,101543.09
2018-05-18T10:56:14.908Z,101530.44
2018-05-18T10:58:43.236Z,101541.16
2018-05-18T11:01:11.630Z,101538.73
2018-05-18T11:03:39.957Z,101532.23
2018-05-18T11:06:08.535Z,101539.80
2018-05-18T11:08:36.918Z,101539.01
2018-05-18T11:11:05.301Z,101538.29
2018-05-18T11:13:33.635Z,101540.51
2018-05-18T11:16:01.985Z,101536.95
2018-05-18T11:18:30.396Z,101536.10
2018-05-18T11:20:58.698Z,101533.97
2018-05-18T11:23:27.032Z,101532.92
2018-05-18T11:25:55.380Z,101534.77
2018-05-18T11:28:23.708Z,101532.20
2018-05-18T11:30:52.056Z,101528.04
2018-05-18T11:33:20.385Z,101531.56
2018-05-18T11:35:48.732Z,101528.80
2018-05-18T11:38:17.069Z,101531.05
2018-05-18T11:40:45.416Z,101520.37
2018-05-18T11:43:13.765Z,101521.79
2018-05-18T11:45:42.113Z,101520.42
2018-05-18T11:48:10.484Z,101516.52
2018-05-18T11:50:38.801Z,101518.07
2018-05-18T11:53:07.136Z,101515.22
2018-05-18T11:55:35.489Z,101514.62
2018-05-18T11:58:03.817Z,101510.47
2018-05-18T12:00:32.172Z,101507.64
2018-05-18T12:03:00.496Z,101504.58
2018-05-18T12:05:28.853Z,101508.13
2018-05-18T12:07:57.185Z,101504.28
2018-05-18T12:10:25.540Z,101508.57
2018-05-18T12:12:54.680Z,101504.23
2018-05-18T12:15:23.038Z,101504.34
2018-05-18T12:17:52.482Z,101499.17
2018-05-18T12:20:20.878Z,101505.64
2018-05-18T12:22:49.158Z,101508.27
2018-05-18T12:25:17.509Z,101506.94
2018-05-18T12:27:45.832Z,101508.83
2018-05-18T12:30:14.226Z,101514.07
2018-05-18T12:32:42.512Z,101506.39
2018-05-18T12:35:10.869Z,101501.67
2018-05-18T12:37:39.198Z,101498.28
2018-05-18T12:40:07.825Z,101502.50
2018-05-18T12:42:36.538Z,101492.53
2018-05-18T12:45:05.331Z,101491.66
2018-05-18T12:47:33.941Z,101495.09
2018-05-18T12:50:02.548Z,101488.27
2018-05-18T12:52:31.210Z,101490.40
2018-05-18T12:54:59.829Z,101488.34
2018-05-18T12:57:28.534Z,101494.48
2018-05-18T12:59:57.179Z,101491.97
2018-05-18T13:02:25.799Z,101484.73
2018-05-18T13:04:55.344Z,101486.92
2018-05-18T13:07:23.973Z,101484.81
2018-05-18T13:09:52.543Z,101489.97
2018-05-18T13:12:21.232Z,101483.52
2018-05-18T13:14:49.864Z,101482.27
2018-05-18T13:17:18.541Z,101480.48
2018-05-18T13:19:47.201Z,101473.63
2018-05-18T13:22:15.884Z,101477.09
2018-05-18T13:24:45.018Z,101468.03
2018-05-18T13:27:14.604Z,101472.45
2018-05-18T13:29:43.250Z,101464.75
2018-05-18T13:32:11.883Z,101473.35
2018-05-18T13:34:40.491Z,101461.30
2018-05-18T13:37:08.920Z,101466.46
2018-05-18T13:39:37.248Z,101464.72
2018-05-18T13:42:05.629Z,101466.47
2018-05-18T13:44:33.956Z,101469.08
2018-05-18T13:47:02.328Z,101466.50
2018-05-18T13:49:30.669Z,101467.37
2018-05-18T13:51:59.019Z,101465.65
2018-05-18T13:54:27.363Z,101466.08
2018-05-18T13:56:55.716Z,101459.63
2018-05-18T13:59:24.076Z,101452.76
2018-05-18T14:01:52.421Z,101451.87
2018-05-18T14:04:20.752Z,101450.58
2018-05-18T14:06:49.106Z,101449.30
2018-05-18T14:09:17.441Z,101440.69
2018-05-18T14:11:45.793Z,101438.96
2018-05-18T14:14:14.132Z,101445.41
2018-05-18T14:16:42.479Z,101443.70
2018-05-18T14:19:10.829Z,101436.78
2018-05-18T14:21:39.181Z,101443.71
2018-05-18T14:24:07.516Z,101441.55
2018-05-18T14:26:36.681Z,101438.95
2018-05-18T14:29:05.021Z,101435.94
2018-05-18T14:31:34.040Z,101440.25
2018-05-18T14:34:02.409Z,101440.98
2018-05-18T14:36:30.769Z,101435.69
2018-05-18T14:38:59.520Z,101429.84
2018-05-18T14:41:27.873Z,101432.41
2018-05-18T14:43:56.286Z,101430.53
2018-05-18T14:46:24.668Z,101430.70
2018-05-18T14:48:53.621Z,101433.78
2018-05-18T14:51:22.532Z,101434.65
2018-05-18T14:53:50.900Z,101423.84
2018-05-18T14:56:19.296Z,101427.76
2018-05-18T14:58:47.624Z,101423.47
2018-05-18T15:01:16.047Z,101425.62
2018-05-18T15:03:44.380Z,101421.73
2018-05-18T15:06:12.712Z,101423.02
2018-05-18T15:08:41.069Z,101424.73
2018-05-18T15:11:09.409Z,101419.14
2018-05-18T15:13:37.779Z,101420.02
2018-05-18T15:16:06.104Z,101427.75
2018-05-18T15:18:34.459Z,101424.31
2018-05-18T15:21:02.798Z,101420.86
2018-05-18T15:23:31.187Z,101414.41
2018-05-18T15:25:59.542Z,101422.17
2018-05-18T15:28:27.891Z,101428.19
2018-05-18T15:30:56.220Z,101424.73
2018-05-18T15:33:24.569Z,101422.17
2018-05-18T15:35:53.238Z,101428.20
2018-05-18T15:38:21.673Z,101419.15
2018-05-18T15:40:50.002Z,101427.30
2018-05-18T15:43:18.349Z,101418.69
2018-05-18T15:45:46.681Z,101424.30
2018-05-18T15:48:15.039Z,101410.94
2018-05-18T15:50:43.365Z,101419.92
2018-05-18T15:53:11.712Z,101422.53
2018-05-18T15:55:40.050Z,101418.64
2018-05-18T15:58:08.429Z,101411.79
2018-05-18T16:00:36.766Z,101412.25
2018-05-18T16:03:05.126Z,101414.84
2018-05-18T16:05:33.457Z,101415.69
2018-05-18T16:08:01.812Z,101409.23
2018-05-18T16:10:30.142Z,101410.98
2018-05-18T16:12:58.528Z,101408.83
2018-05-18T16:15:26.823Z,101406.68
2018-05-18T16:17:55.182Z,101405.38
2018-05-18T16:20:23.514Z,101407.54
2018-05-18T16:22:51.865Z,101406.23
2018-05-18T16:25:20.806Z,101404.50
2018-05-18T16:27:49.171Z,101404.51
2018-05-18T16:30:17.488Z,101405.81
2018-05-18T16:32:45.852Z,101402.78
2018-05-18T16:35:14.177Z,101399.78
2018-05-18T16:37:42.533Z,101400.62
2018-05-18T16:40:10.954Z,101403.23
2018-05-18T16:42:39.212Z,101404.48
2018-05-18T16:45:07.540Z,101400.65
2018-05-18T16:47:35.884Z,101398.91
2018-05-18T16:50:04.212Z,101404.06
2018-05-18T16:52:32.569Z,101400.19
2018-05-18T16:55:00.900Z,101395.03
2018-05-18T16:57:29.257Z,101396.75
2018-05-18T16:59:57.591Z,101396.31
2018-05-18T17:02:25.916Z,101399.78
2018-05-18T17:04:54.264Z,101398.48
2018-05-18T17:07:22.597Z,101398.92
2018-05-18T17:09:50.948Z,101401.94
2018-05-18T17:12:19.279Z,101401.05
2018-05-18T17:14:47.632Z,101406.66
2018-05-18T17:17:15.955Z,101399.77
2018-05-18T17:19:44.328Z,101403.22
2018-05-18T17:22:12.637Z,101403.19
2018-05-18T17:24:40.993Z,101404.48
2018-05-18T17:27:09.322Z,101398.90
2018-05-18T17:29:37.672Z,101403.20
2018-05-18T17:32:05.996Z,101394.59
2018-05-18T17:34:34.340Z,101398.91
2018-05-18T17:37:02.669Z,101397.17
2018-05-18T17:39:31.024Z,101400.16
2018-05-18T17:41:59.360Z,101399.73
2018-05-18T17:44:27.709Z,101399.75
2018-05-18T17:46:56.037Z,101404.92
2018-05-18T17:49:24.384Z,101401.88
2018-05-18T17:51:52.715Z,101408.78
2018-05-18T17:54:21.111Z,101407.91
2018-05-18T17:56:49.392Z,101410.47
2018-05-18T17:59:17.748Z,101405.34
2018-05-18T18:01:46.072Z,101407.48
2018-05-18T18:04:14.420Z,101404.45
2018-05-18T18:06:42.753Z,101401.44
2018-05-18T18:09:11.101Z,101406.19
2018-05-18T18:11:39.428Z,101407.49
2018-05-18T18:14:07.823Z,101400.20
2018-05-18T18:16:36.644Z,101401.91
2018-05-18T18:19:04.997Z,101407.09
2018-05-18T18:21:33.333Z,101408.81
2018-05-18T18:24:01.684Z,101407.95
2018-05-18T18:26:30.012Z,101409.69
2018-05-18T18:28:58.371Z,101413.54
2018-05-18T18:31:26.701Z,101410.94
2018-05-18T18:33:55.052Z,101411.36
2018-05-18T18:36:23.400Z,101407.47
2018-05-18T18:38:51.745Z,101418.25
2018-05-18T18:41:20.354Z,101416.48
2018-05-18T18:43:48.704Z,101414.29
2018-05-18T18:46:17.032Z,101417.72
2018-05-18T18:48:45.384Z,101421.17
2018-05-18T18:51:13.755Z,101416.01
2018-05-18T18:53:42.143Z,101421.14
2018-05-18T18:56:10.471Z,101421.58
2018-05-18T18:58:39.014Z,101418.52
2018-05-18T19:01:07.340Z,101423.69
2018-05-18T19:03:35.722Z,101421.91
2018-05-18T19:06:04.071Z,101423.98
2018-05-18T19:08:32.487Z,101427.02
2018-05-18T19:11:00.778Z,101436.82
2018-05-18T19:13:29.106Z,101438.97
2018-05-18T19:15:57.469Z,101444.55
2018-05-18T19:18:25.801Z,101443.73
2018-05-18T19:20:54.165Z,101442.41
2018-05-18T19:23:22.493Z,101447.58
2018-05-18T19:25:50.844Z,101453.97
2018-05-18T19:28:19.176Z,101456.95
2018-05-18T19:30:47.526Z,101458.60
2018-05-18T19:33:15.860Z,101456.36
2018-05-18T19:35:44.217Z,101461.77
2018-05-18T19:38:13.401Z,101461.67
2018-05-18T19:40:41.758Z,101465.42
2018-05-18T19:43:10.093Z,101463.59
2018-05-18T19:45:38.444Z,101470.08
2018-05-18T19:48:06.773Z,101466.91
2018-05-18T19:50:35.124Z,101470.77
2018-05-18T19:53:03.447Z,101473.27
2018-05-18T19:55:31.796Z,101478.69
2018-05-18T19:58:00.134Z,101479.93
2018-05-18T20:00:28.475Z,101481.95
2018-05-18T20:02:56.804Z,101481.75
2018-05-18T20:05:25.161Z,101481.59
2018-05-18T20:07:53.488Z,101487.82
2018-05-18T20:10:21.848Z,101478.76
2018-05-18T20:12:51.133Z,101482.82
2018-05-18T20:15:19.477Z,101490.84
2018-05-18T20:17:47.815Z,101486.38
2018-05-18T20:20:16.169Z,101493.90
2018-05-18T20:22:44.497Z,101496.43
2018-05-18T20:25:12.841Z,101496.30
2018-05-18T20:27:41.167Z,101494.83
2018-05-18T20:30:09.516Z,101492.16
2018-05-18T20:32:37.843Z,101493.44
2018-05-18T20:35:06.193Z,101495.34
2018-05-18T20:37:34.515Z,101497.33
2018-05-18T20:40:02.870Z,101499.78
2018-05-18T20:42:31.194Z,101505.61
2018-05-18T20:44:59.559Z,101509.93
2018-05-18T20:47:27.876Z,101517.70
2018-05-18T20:49:56.225Z,101508.08
2018-05-18T20:52:24.553Z,101510.14
2018-05-18T20:54:52.925Z,101516.20
2018-05-18T20:57:21.248Z,101516.13
2018-05-18T20:59:49.600Z,101516.52
2018-05-18T21:02:17.926Z,101520.81
2018-05-18T21:04:46.253Z,101518.66
2018-05-18T21:07:14.600Z,101520.59
2018-05-18T21:09:42.938Z,101514.27
2018-05-18T21:12:11.280Z,101522.16
2018-05-18T21:14:40.533Z,101519.47
2018-05-18T21:17:08.879Z,101513.52
2018-05-18T21:19:37.216Z,101515.78
2018-05-18T21:22:05.573Z,101512.56
2018-05-18T21:24:33.900Z,101512.91
2018-05-18T21:27:02.252Z,101506.78
2018-05-18T21:29:30.581Z,101522.93
2018-05-18T21:31:58.932Z,101525.83
2018-05-18T21:34:27.351Z,101532.14
2018-05-18T21:36:55.695Z,101535.41
2018-05-18T21:39:24.020Z,101536.30
2018-05-18T21:41:52.368Z,101536.19
2018-05-18T21:44:20.700Z,101533.55
2018-05-18T21:46:49.045Z,101534.38
2018-05-18T21:49:17.360Z,101538.98
2018-05-18T21:51:45.709Z,101542.17
2018-05-18T21:54:14.032Z,101544.84
2018-05-18T21:56:42.380Z,101552.32
2018-05-18T21:59:10.700Z,101562.33
2018-05-18T22:01:39.044Z,101558.47
2018-05-18T22:04:07.374Z,101566.22
2018-05-18T22:06:35.738Z,101568.41
2018-05-18T22:09:06.676Z,101565.78
2018-05-18T22:11:35.021Z,101572.61
2018-05-18T22:14:03.355Z,101568.38
2018-05-18T22:16:31.692Z,101563.66
2018-05-18T22:19:00.022Z,101567.12
2018-05-18T22:21:28.367Z,101564.19
2018-05-18T22:23:56.687Z,101565.05
2018-05-18T22:26:25.036Z,101561.09
2018-05-18T22:28:53.360Z,101562.30
2018-05-18T22:31:21.705Z,101565.55
2018-05-18T22:33:50.028Z,101569.36
2018-05-18T22:36:18.380Z,101562.63
2018-05-18T22:38:46.704Z,101566.13
2018-05-18T22:41:15.049Z,101561.84
2018-05-18T22:43:43.373Z,101558.09
2018-05-18T22:46:11.721Z,101560.64
2018-05-18T22:48:40.041Z,101554.16
2018-05-18T22:51:08.388Z,101551.53
2018-05-18T22:53:36.712Z,101540.70
2018-05-18T22:56:05.056Z,101552.63
2018-05-18T22:58:33.383Z,101557.68
2018-05-18T23:01:01.728Z,101557.00
2018-05-18T23:03:30.044Z,101545.83
2018-05-18T23:05:58.414Z,101554.80
2018-05-18T23:08:26.737Z,101554.25
2018-05-18T23:10:55.060Z,101558.42
2018-05-18T23:13:23.403Z,101555.83
2018-05-18T23:15:51.724Z,101556.56
2018-05-18T23:18:20.068Z,101552.88
2018-05-18T23:20:48.394Z,101554.11
2018-05-18T23:23:16.736Z,101550.16
2018-05-18T23:25:45.117Z,101546.06
2018-05-18T23:28:13.416Z,101549.58
2018-05-18T23:30:41.741Z,101557.68
2018-05-18T23:33:10.085Z,101553.45
2018-05-18T23:35:38.414Z,101560.32
2018-05-18T23:38:06.761Z,101562.11
2018-05-18T23:40:35.085Z,101558.30
2018-05-18T23:43:03.428Z,101555.73
2018-05-18T23:45:31.753Z,101556.45
2018-05-18T23:48:00.100Z,101552.63
2018-05-18T23:50:28.425Z,101549.02
2018-05-18T23:52:56.796Z,101547.62
2018-05-18T23:55:25.099Z,101543.74
2018-05-18T23:57:53.447Z,101544.48
